Time;durP1;ratioP1;P1;durP2;ratioP2;P2;SDS_P1;SDS_P2;PMS_P1;PMS_P2;Temp;Humidity;BMP_temperature;BMP_pressure;BME280_temperature;BME280_humidity;BME280_pressure;Samples;Min_cycle;Max_cycle;Signal;HPM_P1;HPM_P2
2022/01/31 00:00:55;;;;;;;28.17;7.10;;;3.20;99.90;;;;;;5064886;28;20101;-49
2022/01/31 00:03:22;;;;;;;27.88;7.50;;;3.40;99.90;;;;;;5063645;28;20788;-50
2022/01/31 00:05:48;;;;;;;26.10;5.93;;;;;;;;;;5064972;28;20040;-49
2022/01/31 00:08:21;;;;;;;24.00;6.63;;;;;;;;;;5062885;28;20063;-49
2022/01/31 00:10:47;;;;;;;;;;;3.50;99.90;;;;;;5064994;28;20036;-50
2022/01/31 00:13:19;;;;;;;19.17;6.15;;;;;;;;;;5063000;28;20408;-50
2022/01/31 00:15:52;;;;;;;18.13;5.20;;;;;;;;;;5064169;28;20044;-48
2022/01/31 00:18:20;;;;;;;28.17;7.25;;;3.40;99.90;;;;;;5063896;28;20120;-50
2022/01/31 00:20:46;;;;;;;22.65;6.18;;;;;;;;;;5064252;28;20047;-50
2022/01/31 00:23:12;;;;;;;23.13;4.95;;;;;;;;;;5063631;28;20159;-48
2022/01/31 00:25:38;;;;;;;20.15;5.50;;;3.40;99.90;;;;;;5061781;28;20040;-51
2022/01/31 00:28:04;;;;;;;23.05;5.00;;;;;;;;;;5063619;28;20033;-48
2022/01/31 00:30:30;;;;;;;20.45;4.40;;;;;;;;;;5063939;28;20737;-49
2022/01/31 00:32:56;;;;;;;20.88;5.50;;;;;;;;;;5064172;28;20044;-48
2022/01/31 00:35:23;;;;;;;30.73;5.38;;;;;;;;;;5064096;28;20083;-50
2022/01/31 00:37:49;;;;;;;21.80;6.47;;;;;;;;;;5063945;28;20066;-50
2022/01/31 00:40:15;;;;;;;22.65;5.78;;;;;;;;;;5063926;28;20051;-50
2022/01/31 00:42:41;;;;;;;21.20;4.70;;;;;;;;;;5063937;28;20127;-47
2022/01/31 00:47:34;;;;;;;21.48;5.15;;;;;;;;;;5062501;28;20045;-50
2022/01/31 00:50:12;;;;;;;22.35;6.50;;;3.50;99.90;;;;;;5062863;28;20098;-50
2022/01/31 00:52:42;;;;;;;27.75;6.32;;;3.40;99.90;;;;;;5064180;28;20037;-51
2022/01/31 00:55:10;;;;;;;24.65;6.30;;;3.60;99.90;;;;;;5062423;28;20032;-49
2022/01/31 00:57:36;;;;;;;21.05;6.05;;;;;;;;;;5062735;28;20033;-46
2022/01/31 01:00:04;;;;;;;19.83;6.38;;;3.60;99.90;;;;;;5063852;28;20040;-48
2022/01/31 01:02:31;;;;;;;22.38;6.63;;;;;;;;;;5063793;28;20049;-48
2022/01/31 01:04:57;;;;;;;19.58;7.03;;;;;;;;;;5063723;28;20123;-48
2022/01/31 01:07:25;;;;;;;25.55;6.55;;;2.40;99.90;;;;;;5064239;28;20051;-47
2022/01/31 01:09:51;;;;;;;24.73;7.78;;;;;;;;;;5063717;28;20135;-50
2022/01/31 01:12:19;;;;;;;27.98;9.73;;;3.70;99.90;;;;;;5064499;28;20040;-45
2022/01/31 01:14:46;;;;;;;23.23;8.57;;;3.60;99.90;;;;;;5063926;28;20073;-48
2022/01/31 01:17:12;;;;;;;28.73;9.35;;;;;;;;;;5064314;28;20149;-46
2022/01/31 01:19:38;;;;;;;31.60;10.43;;;;;;;;;;5064484;28;20070;-47
2022/01/31 01:22:05;;;;;;;19.17;8.15;;;;;;;;;;5063683;28;20206;-49
2022/01/31 01:24:31;;;;;;;26.27;10.00;;;;;;;;;;5062173;28;20162;-43
2022/01/31 01:26:57;;;;;;;22.73;9.10;;;;;;;;;;5063617;28;20047;-48
2022/01/31 01:29:25;;;;;;;21.30;8.63;;;3.70;99.90;;;;;;5063635;28;20052;-47
2022/01/31 01:31:52;;;;;;;30.33;11.88;;;;;;;;;;5062714;28;20222;-49
2022/01/31 01:34:20;;;;;;;25.85;11.10;;;;;;;;;;5060990;28;20048;-45
2022/01/31 01:36:47;;;;;;;29.80;13.18;;;;;;;;;;5061162;28;20037;-49
2022/01/31 01:39:14;;;;;;;22.20;9.82;;;3.50;99.90;;;;;;5061781;28;20044;-49
2022/01/31 01:41:40;;;;;;;27.27;11.95;;;;;;;;;;5063150;28;20041;-49
2022/01/31 01:44:06;;;;;;;25.40;11.75;;;;;;;;;;5061747;28;20143;-47
2022/01/31 01:46:33;;;;;;;27.80;12.75;;;;;;;;;;5061575;28;20047;-48
2022/01/31 01:48:59;;;;;;;20.23;10.60;;;;;;;;;;5062078;28;20036;-47
2022/01/31 01:51:25;;;;;;;23.08;12.60;;;;;;;;;;5062463;28;20047;-47
2022/01/31 01:53:52;;;;;;;18.98;10.95;;;3.20;99.90;;;;;;5063048;28;20039;-48
2022/01/31 01:56:18;;;;;;;24.63;12.43;;;;;;;;;;5062444;28;20400;-48
2022/01/31 01:58:47;;;;;;;20.75;10.50;;;;;;;;;;5062091;28;20505;-49
2022/01/31 02:01:13;;;;;;;17.60;10.18;;;;;;;;;;5061986;28;20047;-49
2022/01/31 02:03:40;;;;;;;20.60;11.30;;;3.00;99.90;;;;;;5061717;28;20058;-47
2022/01/31 02:06:08;;;;;;;14.57;9.57;;;3.10;99.90;;;;;;5062462;28;20055;-48
2022/01/31 02:08:42;;;;;;;18.52;11.02;;;2.90;99.90;;;;;;5062978;28;20046;-49
2022/01/31 02:11:10;;;;;;;16.98;10.23;;;2.90;99.90;;;;;;5061716;28;20048;-46
2022/01/31 02:13:37;;;;;;;24.13;11.35;;;2.80;99.90;;;;;;5062231;28;20115;-50
2022/01/31 02:16:04;;;;;;;15.23;9.88;;;2.80;99.90;;;;;;5063866;28;20411;-48
2022/01/31 02:18:32;;;;;;;17.25;11.00;;;2.90;99.90;;;;;;5063247;28;20483;-49
2022/01/31 02:20:58;;;;;;;21.92;10.93;;;;;;;;;;5062929;28;20123;-50
2022/01/31 02:23:26;;;;;;;17.25;10.77;;;2.80;99.90;;;;;;5062987;28;20071;-49
2022/01/31 02:26:01;;;;;;;19.83;10.68;;;2.80;99.90;;;;;;5061064;28;20040;-50
2022/01/31 02:28:30;;;;;;;19.25;11.65;;;2.80;99.90;;;;;;5061417;28;20041;-49
2022/01/31 02:30:57;;;;;;;23.23;10.75;;;2.90;99.90;;;;;;5061784;28;20443;-50
2022/01/31 02:33:23;;;;;;;22.65;12.35;;;;;;;;;;5061771;28;20036;-50
2022/01/31 02:35:55;;;;;;;26.00;11.57;;;3.00;99.90;;;;;;5063286;28;20068;-50
2022/01/31 02:38:22;;;;;;;27.05;14.35;;;;;;;;;;5059940;28;20044;-50
2022/01/31 02:40:50;;;;;;;22.58;12.95;;;;;;;;;;5061755;28;20536;-49
2022/01/31 02:43:31;;;;;;;21.63;13.32;;;3.00;99.90;;;;;;5061743;28;20040;-50
2022/01/31 02:45:58;;;;;;;24.58;13.52;;;3.00;99.90;;;;;;5060458;28;20041;-49
2022/01/31 02:48:26;;;;;;;23.08;13.60;;;;;;;;;;5062645;28;20040;-46
2022/01/31 02:50:53;;;;;;;25.48;14.18;;;;;;;;;;5062205;28;20121;-46
2022/01/31 02:53:25;;;;;;;20.65;11.07;;;3.20;99.90;;;;;;5062031;28;20127;-47
2022/01/31 02:55:51;;;;;;;;;;;3.10;99.90;;;;;;5061382;28;20517;-49
2022/01/31 02:58:18;;;;;;;21.92;11.75;;;;;;;;;;5061442;28;20416;-47
2022/01/31 03:00:44;;;;;;;23.45;11.63;;;;;;;;;;5060080;28;20033;-44
2022/01/31 03:03:10;;;;;;;21.13;11.07;;;;;;;;;;5062284;28;20040;-48
2022/01/31 03:05:36;;;;;;;18.40;10.75;;;;;;;;;;5061287;28;20075;-50
2022/01/31 03:08:03;;;;;;;18.15;9.55;;;2.90;99.90;;;;;;5060792;28;20067;-46
2022/01/31 03:10:29;;;;;;;19.48;7.35;;;;;;;;;;5061285;28;20045;-49
2022/01/31 03:12:57;;;;;;;17.10;7.50;;;3.70;99.90;;;;;;5061306;28;20141;-50
2022/01/31 03:15:23;;;;;;;16.50;8.13;;;;;;;;;;5061194;28;20045;-44
2022/01/31 03:17:50;;;;;;;19.90;7.47;;;;;;;;;;5061359;28;20158;-48
2022/01/31 03:20:18;;;;;;;20.05;5.95;;;4.20;99.90;;;;;;5061120;28;20052;-46
2022/01/31 03:22:45;;;;;;;29.15;7.60;;;;;;;;;;5061578;28;20090;-46
2022/01/31 03:25:11;;;;;;;18.10;5.40;;;;;;;;;;5061427;28;20508;-50
2022/01/31 03:27:38;;;;;;;22.20;5.30;;;4.30;99.90;;;;;;5061977;28;20047;-47
2022/01/31 03:30:06;;;;;;;28.60;6.18;;;4.70;99.90;;;;;;5058585;28;20041;-50
2022/01/31 03:32:32;;;;;;;26.60;5.63;;;;;;;;;;5061405;28;20126;-45
2022/01/31 03:34:58;;;;;;;31.83;5.45;;;;;;;;;;5062099;28;20041;-48
2022/01/31 03:37:25;;;;;;;34.10;6.18;;;4.80;99.90;;;;;;5061953;28;20127;-50
2022/01/31 03:39:51;;;;;;;25.90;5.10;;;;;;;;;;5060870;28;20105;-46
2022/01/31 03:42:18;;;;;;;31.73;4.95;;;;;;;;;;5062231;28;20048;-46
2022/01/31 03:44:48;;;;;;;29.40;4.47;;;5.20;99.90;;;;;;5062197;28;20045;-49
2022/01/31 03:47:17;;;;;;;28.20;5.32;;;5.10;99.90;;;;;;5061654;28;20139;-49
2022/01/31 03:49:43;;;;;;;27.17;4.05;;;;;;;;;;5061875;28;20440;-47
2022/01/31 03:52:10;;;;;;;24.00;4.13;;;;;;;;;;5062848;28;20041;-46
2022/01/31 03:54:37;;;;;;;28.88;3.40;;;5.10;99.90;;;;;;5062258;28;20047;-50
2022/01/31 03:57:03;;;;;;;22.00;3.45;;;;;;;;;;5062131;28;20063;-47
2022/01/31 03:59:30;;;;;;;22.90;3.35;;;;;;;;;;5064385;28;20127;-48
2022/01/31 04:01:57;;;;;;;21.13;3.78;;;5.20;99.90;;;;;;5064811;28;20043;-49
2022/01/31 04:04:25;;;;;;;21.00;4.70;;;5.30;99.90;;;;;;5064983;28;20131;-46
2022/01/31 04:06:51;;;;;;;21.88;3.08;;;;;;;;;;5064400;28;20076;-49
2022/01/31 04:09:17;;;;;;;21.48;3.75;;;;;;;;;;5064486;28;20080;-50
2022/01/31 04:11:45;;;;;;;19.70;3.10;;;;;;;;;;5063388;28;20040;-50
2022/01/31 04:14:11;;;;;;;13.48;2.25;;;;;;;;;;5064196;28;20694;-44
2022/01/31 04:16:37;;;;;;;15.02;2.38;;;;;;;;;;5062295;28;20110;-48
2022/01/31 04:19:05;;;;;;;13.57;2.13;;;5.00;99.90;;;;;;5064213;28;20075;-49
2022/01/31 04:21:31;;;;;;;19.77;2.30;;;;;;;;;;5063699;28;20122;-47
2022/01/31 04:23:58;;;;;;;15.38;2.30;;;;;;;;;;5065132;28;20052;-49
2022/01/31 04:26:32;;;;;;;21.05;2.47;;;;;;;;;;5063496;28;20439;-51
2022/01/31 04:29:07;;;;;;;15.93;2.97;;;;;;;;;;5064493;28;20046;-47
2022/01/31 04:31:39;;;;;;;26.13;4.22;;;;;;;;;;5063886;28;20049;-49
2022/01/31 04:34:05;;;;;;;;;;;4.40;99.90;;;;;;5063826;28;20120;-51
2022/01/31 04:36:33;;;;;;;24.35;4.25;;;4.40;99.90;;;;;;5063978;28;20034;-50
2022/01/31 04:38:59;;;;;;;21.33;3.00;;;;;;;;;;5063663;28;20044;-50
2022/01/31 04:41:25;;;;;;;34.00;4.35;;;;;;;;;;5063850;28;20039;-48
2022/01/31 04:43:53;;;;;;;26.60;4.32;;;;;;;;;;5063175;28;20485;-51
2022/01/31 04:46:19;;;;;;;31.85;4.82;;;;;;;;;;5064500;28;20575;-51
2022/01/31 04:48:46;;;;;;;24.85;3.83;;;;;;;;;;5063499;28;20036;-51
2022/01/31 04:51:12;;;;;;;20.27;4.43;;;4.80;99.90;;;;;;5064315;28;20056;-46
2022/01/31 04:53:38;;;;;;;34.78;4.15;;;;;;;;;;5064171;28;20045;-51
2022/01/31 04:56:04;;;;;;;25.08;3.65;;;4.60;99.90;;;;;;5064973;28;20040;-50
2022/01/31 04:58:32;;;;;;;22.88;3.08;;;;;;;;;;5064224;28;20131;-47
2022/01/31 05:01:00;;;;;;;27.42;3.10;;;4.60;99.90;;;;;;5065341;28;20130;-49
2022/01/31 05:03:26;;;;;;;8.93;1.23;;;;;;;;;;5065027;28;20040;-47
2022/01/31 05:05:52;;;;;;;8.20;1.15;;;;;;;;;;5064125;28;20060;-48
2022/01/31 05:08:24;;;;;;;10.02;1.48;;;4.30;99.90;;;;;;5062611;28;20052;-51
2022/01/31 05:10:50;;;;;;;11.23;2.35;;;;;;;;;;5064430;28;20515;-49
2022/01/31 05:13:17;;;;;;;10.73;1.70;;;;;;;;;;5064953;28;20032;-48
2022/01/31 05:15:43;;;;;;;7.50;1.25;;;4.30;99.90;;;;;;5064409;28;20417;-49
2022/01/31 05:18:10;;;;;;;6.00;1.35;;;;;;;;;;5061901;28;20059;-49
2022/01/31 05:20:36;;;;;;;10.73;1.08;;;;;;;;;;5062083;28;20028;-48
2022/01/31 05:23:04;;;;;;;9.48;2.65;;;4.40;99.90;;;;;;5064356;28;20064;-48
2022/01/31 05:25:30;;;;;;;14.13;1.38;;;;;;;;;;5063121;28;20054;-50
2022/01/31 05:27:56;;;;;;;17.13;2.30;;;;;;;;;;5062987;28;20033;-48
2022/01/31 05:30:23;;;;;;;19.27;2.08;;;;;;;;;;5063170;28;20868;-48
2022/01/31 05:32:49;;;;;;;16.90;2.50;;;4.10;99.90;;;;;;5062557;28;20048;-50
2022/01/31 05:35:15;;;;;;;18.15;3.17;;;;;;;;;;5062737;28;20083;-51
2022/01/31 05:37:42;;;;;;;20.00;1.60;;;;;;;;;;5060477;28;20559;-45
2022/01/31 05:40:08;;;;;;;17.30;1.92;;;4.20;99.90;;;;;;5062987;28;20521;-49
2022/01/31 05:42:34;;;;;;;14.52;1.80;;;;;;;;;;5062628;28;20425;-47
2022/01/31 05:45:02;;;;;;;16.15;1.70;;;4.50;99.90;;;;;;5063188;28;20413;-50
2022/01/31 05:47:28;;;;;;;14.18;1.92;;;;;;;;;;5061338;28;20044;-50
2022/01/31 05:49:54;;;;;;;18.13;2.38;;;;;;;;;;5061781;28;20135;-50
2022/01/31 05:52:21;;;;;;;18.05;2.08;;;4.40;99.90;;;;;;5061264;28;20135;-47
2022/01/31 05:54:49;;;;;;;17.23;1.95;;;4.40;99.90;;;;;;5062848;28;20245;-48
2022/01/31 05:57:16;;;;;;;22.17;2.28;;;4.20;99.90;;;;;;5062523;28;20040;-49
2022/01/31 05:59:42;;;;;;;16.55;1.92;;;;;;;;;;5062067;28;20090;-47
2022/01/31 06:02:08;;;;;;;20.65;2.42;;;4.30;99.90;;;;;;5062665;28;20525;-49
2022/01/31 06:04:34;;;;;;;20.13;2.90;;;;;;;;;;5062092;28;20521;-49
2022/01/31 06:07:01;;;;;;;14.35;1.83;;;4.20;99.90;;;;;;5062713;28;20033;-50
2022/01/31 06:09:31;;;;;;;16.88;1.95;;;4.40;99.90;;;;;;5060691;28;20400;-51
2022/01/31 06:11:57;;;;;;;23.33;2.50;;;;;;;;;;5063186;28;20048;-45
2022/01/31 06:14:24;;;;;;;18.58;2.38;;;;;;;;;;5062292;28;20036;-50
2022/01/31 06:16:50;;;;;;;16.38;2.40;;;;;;;;;;5062742;28;20451;-50
2022/01/31 06:19:16;;;;;;;11.25;1.70;;;;;;;;;;5062144;28;20059;-49
2022/01/31 06:21:42;;;;;;;19.05;3.10;;;;;;;;;;5061862;28;20036;-50
2022/01/31 06:24:10;;;;;;;13.63;2.10;;;4.40;99.90;;;;;;5063188;28;20117;-50
2022/01/31 06:26:37;;;;;;;13.30;2.38;;;4.40;99.90;;;;;;5063004;28;20048;-49
2022/01/31 06:29:03;;;;;;;10.65;1.58;;;;;;;;;;5061671;28;20130;-51
2022/01/31 06:31:30;;;;;;;14.82;2.00;;;4.30;99.90;;;;;;5062933;28;20036;-51
2022/01/31 06:33:57;;;;;;;13.32;2.55;;;;;;;;;;5062297;28;20045;-51
2022/01/31 06:36:23;;;;;;;11.73;1.92;;;;;;;;;;5062924;28;20393;-48
2022/01/31 06:38:50;;;;;;;21.85;2.95;;;4.40;99.90;;;;;;5062541;28;20033;-50
2022/01/31 06:41:19;;;;;;;10.80;1.60;;;;;;;;;;5061585;28;20047;-48
2022/01/31 06:43:47;;;;;;;11.68;1.85;;;4.60;99.90;;;;;;5060514;28;20161;-46
2022/01/31 06:46:15;;;;;;;13.13;1.40;;;4.50;99.90;;;;;;5059285;28;20183;-50
2022/01/31 06:48:41;;;;;;;10.13;1.77;;;;;;;;;;5059971;28;20040;-49
2022/01/31 06:51:08;;;;;;;12.80;1.63;;;;;;;;;;5061667;28;20040;-55
2022/01/31 06:53:36;;;;;;;16.55;2.63;;;4.40;99.90;;;;;;5062388;28;20554;-51
2022/01/31 06:56:02;;;;;;;16.55;1.65;;;;;;;;;;5062197;28;20032;-50
2022/01/31 06:58:29;;;;;;;20.60;2.70;;;4.60;99.90;;;;;;5061465;28;20128;-51
2022/01/31 07:00:56;;;;;;;9.40;1.40;;;;;;;;;;5061090;28;20048;-51
2022/01/31 07:03:22;;;;;;;10.50;1.92;;;;;;;;;;5062173;28;21060;-49
2022/01/31 07:05:48;;;;;;;19.02;1.58;;;;;;;;;;5061613;28;20601;-49
2022/01/31 07:08:15;;;;;;;9.75;1.33;;;4.50;99.90;;;;;;5061087;28;20052;-47
2022/01/31 07:10:49;;;;;;;16.33;1.92;;;;;;;;;;5060764;28;20036;-46
2022/01/31 07:13:25;;;;;;;15.02;1.88;;;4.50;99.90;;;;;;5061644;28;20151;-45
2022/01/31 07:15:51;;;;;;;11.07;2.00;;;;;;;;;;5060917;28;20047;-49
2022/01/31 07:18:18;;;;;;;17.02;2.30;;;4.60;99.90;;;;;;5060319;28;20040;-48
2022/01/31 07:20:50;;;;;;;9.95;1.60;;;;;;;;;;5061472;28;20198;-47
2022/01/31 07:23:24;;;;;;;11.73;1.70;;;4.40;99.90;;;;;;5061406;28;20157;-50
2022/01/31 07:25:50;;;;;;;15.93;2.28;;;;;;;;;;5060276;28;20044;-46
2022/01/31 07:28:16;;;;;;;16.58;1.95;;;;;;;;;;5060174;28;20032;-47
2022/01/31 07:30:46;;;;;;;12.63;2.47;;;4.60;99.90;;;;;;5060408;28;20041;-45
2022/01/31 07:33:15;;;;;;;15.30;1.70;;;4.40;99.90;;;;;;5064443;28;20048;-46
2022/01/31 07:35:41;;;;;;;20.42;2.58;;;4.50;99.90;;;;;;5064263;28;20047;-48
2022/01/31 07:38:07;;;;;;;13.38;2.17;;;;;;;;;;5065671;28;20052;-46
2022/01/31 07:40:33;;;;;;;19.27;3.42;;;;;;;;;;5064938;28;20572;-49
2022/01/31 07:42:59;;;;;;;12.88;2.00;;;4.60;99.90;;;;;;5065251;28;20033;-50
2022/01/31 07:45:26;;;;;;;12.73;2.83;;;;;;;;;;5064949;28;20036;-47
2022/01/31 07:47:52;;;;;;;21.10;3.63;;;;;;;;;;5065458;28;20141;-45
2022/01/31 07:50:18;;;;;;;15.95;3.30;;;;;;;;;;5064617;28;20044;-46
2022/01/31 07:52:44;;;;;;;15.25;2.80;;;4.60;99.90;;;;;;5064043;28;20044;-49
2022/01/31 07:55:13;;;;;;;39.72;27.40;;;4.60;99.90;;;;;;5065534;28;20037;-47
2022/01/31 07:57:45;;;;;;;24.20;6.30;;;4.70;99.90;;;;;;5064318;28;21253;-49
2022/01/31 08:00:11;;;;;;;21.30;6.22;;;4.60;99.90;;;;;;5064785;28;20050;-51
2022/01/31 08:02:37;;;;;;;19.90;4.97;;;;;;;;;;5065124;28;20117;-50
2022/01/31 08:05:05;;;;;;;22.85;3.08;;;4.70;99.90;;;;;;5064028;28;20505;-46
2022/01/31 08:07:36;;;;;;;19.73;2.70;;;4.60;99.90;;;;;;5063712;28;20121;-48
2022/01/31 08:10:05;;;;;;;17.58;3.22;;;4.60;99.90;;;;;;5064449;28;20040;-48
2022/01/31 08:12:33;;;;;;;15.13;3.03;;;;;;;;;;5063693;28;20143;-50
2022/01/31 08:15:04;;;;;;;18.05;2.25;;;;;;;;;;5063304;28;21024;-48
2022/01/31 08:17:31;;;;;;;10.27;1.60;;;4.80;99.90;;;;;;5063862;28;20115;-50
2022/01/31 08:19:57;;;;;;;12.95;1.80;;;;;;;;;;5064471;28;20048;-49
2022/01/31 08:22:23;;;;;;;19.05;2.92;;;;;;;;;;5063017;28;20413;-49
2022/01/31 08:24:51;;;;;;;11.18;1.95;;;4.80;99.90;;;;;;5064897;28;20075;-50
2022/01/31 08:27:18;;;;;;;14.30;1.90;;;;;;;;;;5064234;28;20047;-50
2022/01/31 08:29:44;;;;;;;14.63;2.75;;;;;;;;;;5063881;28;20350;-49
2022/01/31 08:32:18;;;;;;;13.88;1.85;;;;;;;;;;5062808;28;20044;-48
2022/01/31 08:37:30;;;;;;;13.65;1.73;;;5.20;99.90;;;;;;5062899;28;20409;-50
2022/01/31 08:39:57;;;;;;;13.57;1.90;;;5.30;99.90;;;;;;5063375;28;21742;-50
2022/01/31 08:42:23;;;;;;;16.40;2.28;;;5.30;99.90;;;;;;5064096;28;20045;-50
2022/01/31 08:44:50;;;;;;;19.00;2.08;;;5.50;99.90;;;;;;5062703;28;20390;-46
2022/01/31 08:47:16;;;;;;;17.38;2.97;;;5.40;99.90;;;;;;5062010;28;20033;-52
2022/01/31 08:49:42;;;;;;;17.40;2.40;;;5.40;99.90;;;;;;5062460;28;20040;-50
2022/01/31 08:52:10;;;;;;;14.48;2.58;;;5.40;99.90;;;;;;5064356;28;20119;-51
2022/01/31 08:54:36;;;;;;;9.90;1.70;;;5.70;99.90;;;;;;5064671;28;20033;-51
2022/01/31 08:57:02;;;;;;;18.02;2.15;;;5.70;99.90;;;;;;5063791;28;20525;-51
2022/01/31 08:59:28;;;;;;;15.02;1.80;;;5.80;99.90;;;;;;5064396;28;20406;-51
2022/01/31 09:02:05;;;;;;;19.23;2.35;;;6.10;99.90;;;;;;5063735;28;20070;-48
2022/01/31 09:04:35;;;;;;;11.65;2.08;;;6.70;99.90;;;;;;5064612;28;20048;-48
2022/01/31 09:07:02;;;;;;;17.98;2.17;;;7.70;99.90;;;;;;5063803;28;20043;-49
2022/01/31 09:09:30;;;;;;;13.90;2.15;;;8.20;99.90;;;;;;5063330;28;20039;-50
2022/01/31 09:11:57;;;;;;;14.93;1.88;;;;;;;;;;5062283;28;20392;-45
2022/01/31 09:14:23;;;;;;;19.42;2.65;;;8.70;99.90;;;;;;5063323;28;20157;-52
2022/01/31 09:16:49;;;;;;;22.20;3.63;;;8.40;99.90;;;;;;5060698;28;20133;-47
2022/01/31 09:19:16;;;;;;;18.00;1.88;;;8.40;99.90;;;;;;5062829;28;20060;-50
2022/01/31 09:21:42;;;;;;;11.63;1.80;;;9.10;99.90;;;;;;5063129;28;20126;-49
2022/01/31 09:24:08;;;;;;;10.77;1.52;;;8.30;99.90;;;;;;5061828;28;20094;-49
2022/01/31 09:26:36;;;;;;;12.60;2.10;;;7.50;99.90;;;;;;5063886;28;20529;-49
2022/01/31 09:29:02;;;;;;;11.50;1.75;;;7.10;99.90;;;;;;5062252;28;20041;-48
2022/01/31 09:31:28;;;;;;;10.27;1.40;;;7.30;99.90;;;;;;5061714;28;20040;-50
2022/01/31 09:33:55;;;;;;;9.95;1.25;;;7.90;99.90;;;;;;5062402;28;20048;-49
2022/01/31 09:36:22;;;;;;;11.13;1.92;;;8.90;99.90;;;;;;5062298;28;20856;-50
2022/01/31 09:38:48;;;;;;;10.75;2.00;;;9.00;99.90;;;;;;5059825;28;20115;-48
2022/01/31 09:41:18;;;;;;;15.88;2.65;;;10.10;99.90;;;;;;5062549;28;20040;-49
2022/01/31 09:46:33;;;;;;;12.57;1.55;;;11.30;99.90;;;;;;5061423;28;20040;-48
2022/01/31 09:48:59;;;;;;;10.82;2.03;;;10.20;99.90;;;;;;5059488;28;20093;-46
2022/01/31 09:51:26;;;;;;;8.07;1.30;;;9.50;99.90;;;;;;5062083;28;20480;-47
2022/01/31 09:53:55;;;;;;;9.70;1.52;;;9.00;99.90;;;;;;5062353;28;20147;-49
2022/01/31 09:56:31;;;;;;;11.10;2.60;;;9.10;99.90;;;;;;5061631;28;20143;-48
2022/01/31 09:58:58;;;;;;;13.23;1.83;;;9.00;99.90;;;;;;5062606;28;20041;-47
2022/01/31 10:01:35;;;;;;;8.65;1.50;;;8.40;99.90;;;;;;5062485;28;20520;-48
2022/01/31 10:04:13;;;;;;;12.18;1.70;;;8.30;99.90;;;;;;5062219;28;20042;-50
2022/01/31 10:06:41;;;;;;;12.25;1.60;;;9.50;99.90;;;;;;5062809;28;20176;-49
2022/01/31 10:09:07;;;;;;;11.98;1.98;;;7.70;99.90;;;;;;5062419;28;20041;-49
2022/01/31 10:11:57;;;;;;;9.85;1.63;;;7.60;99.90;;;;;;5062225;28;20045;-47
2022/01/31 10:17:31;;;;;;;10.90;1.30;;;7.40;99.90;;;;;;5060811;28;20067;-48
2022/01/31 10:20:25;;;;;;;13.85;1.88;;;7.70;99.90;;;;;;5061408;28;20048;-47
2022/01/31 10:22:51;;;;;;;9.15;1.45;;;9.90;99.90;;;;;;5009389;28;20057;-48
2022/01/31 10:25:19;;;;;;;16.67;2.88;;;9.10;99.90;;;;;;5015748;28;20045;-49
2022/01/31 10:27:51;;;;;;;10.95;1.58;;;8.70;99.90;;;;;;5009151;28;20042;-50
2022/01/31 10:30:24;;;;;;;13.38;1.65;;;8.90;99.90;;;;;;4992270;28;20465;-46
2022/01/31 10:32:51;;;;;;;11.20;1.58;;;8.40;99.90;;;;;;5011935;28;20176;-50
2022/01/31 10:35:21;;;;;;;11.75;1.33;;;8.20;99.90;;;;;;5011572;28;20045;-47
2022/01/31 10:37:48;;;;;;;12.43;2.08;;;8.00;99.90;;;;;;5013143;28;20649;-48
2022/01/31 10:53:49;;;;;;;17.60;3.65;;;7.90;99.90;;;;;;5008756;28;20454;-51
2022/01/31 10:56:16;;;;;;;15.32;2.70;;;8.70;99.90;;;;;;5006170;28;20073;-48
2022/01/31 10:59:02;;;;;;;13.23;2.00;;;7.80;99.90;;;;;;5008061;28;20090;-46
2022/01/31 11:01:29;;;;;;;11.60;1.77;;;8.00;99.90;;;;;;5060369;28;20513;-48
2022/01/31 11:03:56;;;;;;;18.50;2.58;;;8.10;99.90;;;;;;5061059;28;20550;-47
2022/01/31 11:06:24;;;;;;;18.58;2.97;;;8.00;99.90;;;;;;5061375;28;20620;-51
2022/01/31 11:08:51;;;;;;;18.10;2.40;;;8.10;99.90;;;;;;5064304;28;20064;-50
2022/01/31 11:11:19;;;;;;;11.73;2.65;;;7.80;99.90;;;;;;5064414;28;20410;-47
2022/01/31 11:13:47;;;;;;;19.30;3.15;;;8.00;99.90;;;;;;5065428;28;20047;-49
2022/01/31 11:16:14;;;;;;;17.35;2.53;;;8.10;99.90;;;;;;5064239;28;20091;-47
2022/01/31 11:18:45;;;;;;;18.90;2.65;;;10.00;99.90;;;;;;5064026;28;20045;-50
2022/01/31 11:21:13;;;;;;;14.55;2.72;;;8.20;99.90;;;;;;5063884;28;20040;-50
2022/01/31 11:23:43;;;;;;;22.88;2.72;;;8.30;99.90;;;;;;5063898;28;20466;-51
2022/01/31 11:26:11;;;;;;;17.23;2.95;;;8.40;99.90;;;;;;5064333;28;20052;-52
2022/01/31 11:28:40;;;;;;;20.25;3.00;;;8.70;99.90;;;;;;5065327;28;20051;-49
2022/01/31 11:31:06;;;;;;;14.80;1.83;;;8.30;99.90;;;;;;5063458;28;20033;-49
2022/01/31 11:33:34;;;;;;;16.05;2.15;;;9.20;99.90;;;;;;5064811;28;20189;-50
2022/01/31 11:36:03;;;;;;;14.70;2.03;;;9.20;99.90;;;;;;5065346;28;20147;-48
2022/01/31 11:38:29;;;;;;;17.90;2.30;;;8.30;99.90;;;;;;5064611;28;20493;-49
2022/01/31 11:41:04;;;;;;;18.00;3.30;;;8.20;99.90;;;;;;5063133;28;20036;-50
2022/01/31 11:43:32;;;;;;;18.48;2.85;;;8.10;99.90;;;;;;5064487;28;20097;-49
2022/01/31 11:46:00;;;;;;;14.02;2.00;;;8.30;99.90;;;;;;5063073;28;20039;-48
2022/01/31 11:48:29;;;;;;;12.82;2.50;;;8.10;99.90;;;;;;5063084;28;20040;-46
2022/01/31 11:51:01;;;;;;;15.48;1.80;;;8.20;99.90;;;;;;5063511;28;20059;-51
2022/01/31 11:53:28;;;;;;;16.13;2.00;;;8.30;99.90;;;;;;5062569;28;20135;-48
2022/01/31 11:55:58;;;;;;;17.30;2.75;;;8.40;99.90;;;;;;5064042;28;20044;-48
2022/01/31 11:58:24;;;;;;;18.55;3.67;;;8.40;99.90;;;;;;5063075;28;20066;-50
2022/01/31 12:00:51;;;;;;;16.80;3.08;;;8.50;99.90;;;;;;5062869;28;20450;-49
2022/01/31 12:03:18;;;;;;;18.85;3.67;;;8.50;99.90;;;;;;5063118;28;20060;-47
2022/01/31 12:05:44;;;;;;;13.85;1.90;;;8.70;99.90;;;;;;5062735;28;20040;-51
2022/01/31 12:08:17;;;;;;;13.70;2.08;;;8.70;99.90;;;;;;5063477;28;20072;-48
2022/01/31 12:11:25;;;;;;;11.52;1.70;;;9.40;99.90;;;;;;5062779;28;20044;-60
2022/01/31 12:13:54;;;;;;;21.48;2.95;;;9.20;99.90;;;;;;5062006;28;20072;-49
2022/01/31 12:22:25;;;;;;;20.55;3.50;;;8.10;99.90;;;;;;5061232;28;20044;-47
2022/01/31 12:24:51;;;;;;;15.80;2.70;;;7.90;99.90;;;;;;5062544;28;20053;-49
2022/01/31 12:27:21;;;;;;;14.05;2.53;;;8.00;99.90;;;;;;5062842;28;20052;-47
2022/01/31 12:29:52;;;;;;;20.27;2.30;;;8.00;99.90;;;;;;5061642;28;20695;-49
2022/01/31 12:32:24;;;;;;;20.90;2.28;;;7.90;99.90;;;;;;5061632;28;20493;-48
2022/01/31 12:34:58;;;;;;;18.27;2.88;;;7.70;99.90;;;;;;5063389;28;20040;-49
2022/01/31 12:37:36;;;;;;;25.17;2.72;;;9.00;99.90;;;;;;5062471;28;20053;-50
2022/01/31 12:40:33;;;;;;;17.85;2.28;;;7.70;99.90;;;;;;5061301;28;21212;-46
2022/01/31 12:45:54;;;;;;;18.67;2.88;;;7.90;99.90;;;;;;5061909;28;20055;-50
2022/01/31 12:48:25;;;;;;;22.73;3.83;;;7.90;99.90;;;;;;5019683;28;20060;-48
2022/01/31 12:51:03;;;;;;;19.75;2.65;;;8.20;99.90;;;;;;5019677;28;20056;-52
2022/01/31 12:56:10;;;;;;;14.55;3.25;;;7.80;99.90;;;;;;5021593;28;20124;-50
2022/01/31 12:58:45;;;;;;;16.58;2.58;;;7.80;99.90;;;;;;5020543;28;20045;-45
2022/01/31 13:01:18;;;;;;;22.50;4.32;;;7.80;99.90;;;;;;5021528;28;20049;-49
2022/01/31 13:03:45;;;;;;;;;;;7.70;99.90;;;;;;5020500;28;20037;-49
2022/01/31 13:06:39;;;;;;;16.88;2.95;;;7.70;99.90;;;;;;5019090;28;19921;-48
2022/01/31 13:09:24;;;;;;;22.27;3.08;;;7.50;99.90;;;;;;4940477;29;20078;-46
2022/01/31 13:12:00;;;;;;;20.42;2.55;;;7.60;99.90;;;;;;4940295;28;20048;-50
2022/01/31 13:14:37;;;;;;;21.83;4.32;;;8.90;99.90;;;;;;4941508;28;20066;-48
2022/01/31 13:17:11;;;;;;;16.20;2.75;;;7.60;99.90;;;;;;4940390;28;20062;-49
2022/01/31 13:19:40;;;;;;;22.45;4.28;;;7.40;99.90;;;;;;4940683;29;20039;-47
2022/01/31 13:22:14;;;;;;;19.05;2.58;;;7.40;99.90;;;;;;4941626;29;20125;-52
2022/01/31 13:24:41;;;;;;;21.55;5.00;;;7.50;99.90;;;;;;4950136;28;20556;-49
2022/01/31 13:27:10;;;;;;;48.80;5.82;;;7.70;99.90;;;;;;5001166;28;20458;-46
2022/01/31 13:29:45;;;;;;;23.83;3.65;;;7.60;99.90;;;;;;4982057;28;20049;-45
2022/01/31 13:32:31;;;;;;;19.92;2.75;;;7.40;99.90;;;;;;5000017;28;20049;-51
2022/01/31 13:35:28;;;;;;;22.13;3.20;;;7.50;99.90;;;;;;4999069;28;20038;-52
2022/01/31 13:38:06;;;;;;;24.85;3.10;;;7.50;99.90;;;;;;4963593;28;20505;-49
2022/01/31 13:40:44;;;;;;;22.33;3.70;;;7.50;99.90;;;;;;4998955;28;20510;-48
2022/01/31 13:43:15;;;;;;;32.42;4.43;;;7.70;99.90;;;;;;4999638;28;20050;-47
2022/01/31 13:46:14;;;;;;;23.73;3.92;;;7.60;99.90;;;;;;5035345;28;20053;-48
2022/01/31 13:51:35;;;;;;;28.00;4.63;;;7.50;99.90;;;;;;4999062;28;20185;-51
2022/01/31 13:54:12;;;;;;;22.33;3.90;;;7.60;99.90;;;;;;4999126;28;20824;-48
2022/01/31 13:56:39;;;;;;;27.65;3.85;;;7.50;99.90;;;;;;5000797;28;20156;-50
2022/01/31 13:59:09;;;;;;;25.95;4.45;;;7.60;99.90;;;;;;4998602;28;20051;-46
2022/01/31 14:01:35;;;;;;;22.90;4.38;;;7.50;99.90;;;;;;4997175;28;20120;-47
2022/01/31 14:04:01;;;;;;;20.15;4.05;;;8.10;99.90;;;;;;4999273;28;20336;-49
2022/01/31 14:06:33;;;;;;;23.95;4.10;;;7.40;99.90;;;;;;5000150;28;20065;-51
2022/01/31 14:09:01;;;;;;;19.75;3.42;;;7.50;99.90;;;;;;4999621;28;20050;-45